sensor_id;sensor_type;location;lat;lon;timestamp;pressure;altitude;pressure_sealevel;temperature;humidity
45813;BME280;31519;45.408;10.962;2022-12-07T00:01:44;100573.38;;;7.49;100.00
45813;BME280;31519;45.408;10.962;2022-12-07T00:04:16;100571.88;;;7.62;100.00
45813;BME280;31519;45.408;10.962;2022-12-07T00:06:46;100569.56;;;7.79;100.00
45813;BME280;31519;45.408;10.962;2022-12-07T00:09:18;100566.59;;;7.62;100.00
45813;BME280;31519;45.408;10.962;2022-12-07T00:11:49;100561.50;;;7.66;100.00
45813;BME280;31519;45.408;10.962;2022-12-07T00:14:19;100564.97;;;7.42;100.00
45813;BME280;31519;45.408;10.962;2022-12-07T00:16:50;100557.25;;;7.70;100.00
45813;BME280;31519;45.408;10.962;2022-12-07T00:19:19;100561.34;;;7.57;100.00
45813;BME280;31519;45.408;10.962;2022-12-07T00:21:47;100550.94;;;7.42;100.00
45813;BME280;31519;45.408;10.962;2022-12-07T00:24:15;100555.38;;;7.46;100.00
45813;BME280;31519;45.408;10.962;2022-12-07T00:26:44;100544.00;;;7.46;100.00
45813;BME280;31519;45.408;10.962;2022-12-07T00:29:17;100554.59;;;7.46;100.00
45813;BME280;31519;45.408;10.962;2022-12-07T00:31:46;100546.19;;;7.63;100.00
45813;BME280;31519;45.408;10.962;2022-12-07T00:34:18;100552.03;;;7.36;99.96
45813;BME280;31519;45.408;10.962;2022-12-07T00:36:47;100555.00;;;7.29;100.00
45813;BME280;31519;45.408;10.962;2022-12-07T00:39:17;100556.03;;;7.33;100.00
45813;BME280;31519;45.408;10.962;2022-12-07T00:41:45;100573.59;;;6.95;100.00
45813;BME280;31519;45.408;10.962;2022-12-07T00:44:13;100565.09;;;6.98;100.00
45813;BME280;31519;45.408;10.962;2022-12-07T00:46:41;100563.59;;;6.53;100.00
45813;BME280;31519;45.408;10.962;2022-12-07T00:49:09;100560.81;;;6.74;100.00
45813;BME280;31519;45.408;10.962;2022-12-07T00:51:38;100561.66;;;6.98;100.00
45813;BME280;31519;45.408;10.962;2022-12-07T00:54:06;100556.47;;;6.49;100.00
45813;BME280;31519;45.408;10.962;2022-12-07T00:56:34;100552.31;;;6.38;100.00
45813;BME280;31519;45.408;10.962;2022-12-07T00:59:03;100552.84;;;6.40;100.00
45813;BME280;31519;45.408;10.962;2022-12-07T01:01:36;100556.81;;;6.76;100.00
45813;BME280;31519;45.408;10.962;2022-12-07T01:04:05;100559.94;;;6.49;100.00
45813;BME280;31519;45.408;10.962;2022-12-07T01:06:34;100551.44;;;6.52;100.00
45813;BME280;31519;45.408;10.962;2022-12-07T01:09:03;100560.19;;;6.48;100.00
45813;BME280;31519;45.408;10.962;2022-12-07T01:11:33;100555.03;;;6.28;100.00
45813;BME280;31519;45.408;10.962;2022-12-07T01:14:02;100556.72;;;6.52;100.00
45813;BME280;31519;45.408;10.962;2022-12-07T01:16:32;100554.56;;;6.59;100.00
45813;BME280;31519;45.408;10.962;2022-12-07T01:19:02;100555.16;;;6.46;100.00
45813;BME280;31519;45.408;10.962;2022-12-07T01:21:34;100556.97;;;6.51;100.00
45813;BME280;31519;45.408;10.962;2022-12-07T01:24:05;100564.81;;;6.27;100.00
45813;BME280;31519;45.408;10.962;2022-12-07T01:26:35;100567.47;;;6.27;100.00
45813;BME280;31519;45.408;10.962;2022-12-07T01:29:03;100569.75;;;5.79;100.00
45813;BME280;31519;45.408;10.962;2022-12-07T01:31:33;100555.56;;;6.24;100.00
45813;BME280;31519;45.408;10.962;2022-12-07T01:34:01;100555.78;;;6.33;100.00
45813;BME280;31519;45.408;10.962;2022-12-07T01:36:32;100555.44;;;6.45;100.00
45813;BME280;31519;45.408;10.962;2022-12-07T01:39:03;100563.09;;;6.46;100.00
45813;BME280;31519;45.408;10.962;2022-12-07T01:41:34;100564.88;;;6.17;100.00
45813;BME280;31519;45.408;10.962;2022-12-07T01:46:55;100558.50;;;6.23;100.00
45813;BME280;31519;45.408;10.962;2022-12-07T01:52:26;100551.59;;;6.66;100.00
45813;BME280;31519;45.408;10.962;2022-12-07T01:55:06;100550.56;;;6.62;100.00
45813;BME280;31519;45.408;10.962;2022-12-07T01:57:39;100551.81;;;6.36;100.00
45813;BME280;31519;45.408;10.962;2022-12-07T02:00:09;100555.50;;;5.80;100.00
45813;BME280;31519;45.408;10.962;2022-12-07T02:02:57;100541.00;;;5.68;100.00
45813;BME280;31519;45.408;10.962;2022-12-07T02:05:28;100544.41;;;5.68;100.00
45813;BME280;31519;45.408;10.962;2022-12-07T02:07:57;100555.06;;;5.58;100.00
45813;BME280;31519;45.408;10.962;2022-12-07T02:10:29;100543.97;;;5.46;100.00
45813;BME280;31519;45.408;10.962;2022-12-07T02:13:19;100536.56;;;5.48;100.00
45813;BME280;31519;45.408;10.962;2022-12-07T02:16:26;100538.69;;;5.51;100.00
45813;BME280;31519;45.408;10.962;2022-12-07T02:19:41;100532.22;;;5.77;100.00
45813;BME280;31519;45.408;10.962;2022-12-07T02:27:56;100523.66;;;6.06;100.00
45813;BME280;31519;45.408;10.962;2022-12-07T02:30:33;100530.56;;;6.02;100.00
45813;BME280;31519;45.408;10.962;2022-12-07T02:33:04;100531.38;;;6.02;100.00
45813;BME280;31519;45.408;10.962;2022-12-07T02:35:44;100524.50;;;6.01;100.00
45813;BME280;31519;45.408;10.962;2022-12-07T02:38:25;100528.94;;;6.11;100.00
45813;BME280;31519;45.408;10.962;2022-12-07T02:41:00;100530.94;;;6.29;100.00
45813;BME280;31519;45.408;10.962;2022-12-07T02:43:46;100525.31;;;6.41;100.00
45813;BME280;31519;45.408;10.962;2022-12-07T02:49:16;100522.22;;;6.67;100.00
45813;BME280;31519;45.408;10.962;2022-12-07T02:51:46;100529.31;;;6.72;100.00
45813;BME280;31519;45.408;10.962;2022-12-07T02:54:19;100529.25;;;6.82;100.00
45813;BME280;31519;45.408;10.962;2022-12-07T03:00:09;100522.66;;;6.75;100.00
45813;BME280;31519;45.408;10.962;2022-12-07T03:02:58;100523.50;;;6.36;100.00
45813;BME280;31519;45.408;10.962;2022-12-07T03:08:11;100517.53;;;6.15;100.00
45813;BME280;31519;45.408;10.962;2022-12-07T03:13:41;100521.19;;;6.24;100.00
45813;BME280;31519;45.408;10.962;2022-12-07T03:16:20;100514.41;;;6.08;100.00
45813;BME280;31519;45.408;10.962;2022-12-07T03:18:57;100518.16;;;5.97;100.00
45813;BME280;31519;45.408;10.962;2022-12-07T03:21:32;100522.94;;;5.95;100.00
45813;BME280;31519;45.408;10.962;2022-12-07T03:24:08;100516.34;;;5.82;100.00
45813;BME280;31519;45.408;10.962;2022-12-07T03:26:42;100503.50;;;5.61;100.00
45813;BME280;31519;45.408;10.962;2022-12-07T03:29:25;100496.91;;;5.63;100.00
45813;BME280;31519;45.408;10.962;2022-12-07T03:31:59;100494.78;;;5.60;100.00
45813;BME280;31519;45.408;10.962;2022-12-07T03:35:01;100499.06;;;5.41;100.00
45813;BME280;31519;45.408;10.962;2022-12-07T03:37:35;100492.09;;;5.70;100.00
45813;BME280;31519;45.408;10.962;2022-12-07T03:43:01;100494.53;;;5.57;100.00
45813;BME280;31519;45.408;10.962;2022-12-07T03:45:38;100489.53;;;5.55;100.00
45813;BME280;31519;45.408;10.962;2022-12-07T03:49:12;100488.19;;;5.63;100.00
45813;BME280;31519;45.408;10.962;2022-12-07T03:51:25;100483.72;;;5.58;100.00
45813;BME280;31519;45.408;10.962;2022-12-07T03:54:24;100476.69;;;5.93;100.00
45813;BME280;31519;45.408;10.962;2022-12-07T03:56:57;100477.47;;;5.98;100.00
45813;BME280;31519;45.408;10.962;2022-12-07T03:59:26;100475.44;;;6.24;100.00
45813;BME280;31519;45.408;10.962;2022-12-07T04:02:02;100473.94;;;6.47;100.00
45813;BME280;31519;45.408;10.962;2022-12-07T04:04:31;100478.25;;;6.38;100.00
45813;BME280;31519;45.408;10.962;2022-12-07T04:07:00;100473.69;;;6.43;100.00
45813;BME280;31519;45.408;10.962;2022-12-07T04:09:28;100476.13;;;6.74;100.00
45813;BME280;31519;45.408;10.962;2022-12-07T04:11:57;100473.06;;;6.56;100.00
45813;BME280;31519;45.408;10.962;2022-12-07T04:14:25;100483.31;;;6.68;100.00
45813;BME280;31519;45.408;10.962;2022-12-07T04:16:56;100473.81;;;6.62;100.00
45813;BME280;31519;45.408;10.962;2022-12-07T04:19:31;100469.63;;;6.85;100.00
45813;BME280;31519;45.408;10.962;2022-12-07T04:22:02;100473.81;;;6.62;100.00
45813;BME280;31519;45.408;10.962;2022-12-07T04:24:31;100475.25;;;6.49;100.00
45813;BME280;31519;45.408;10.962;2022-12-07T04:27:01;100473.59;;;6.58;100.00
45813;BME280;31519;45.408;10.962;2022-12-07T04:29:29;100477.22;;;6.67;100.00
45813;BME280;31519;45.408;10.962;2022-12-07T04:31:58;100477.81;;;6.59;100.00
45813;BME280;31519;45.408;10.962;2022-12-07T04:34:26;100465.41;;;6.84;100.00
45813;BME280;31519;45.408;10.962;2022-12-07T04:36:56;100466.38;;;6.93;100.00
45813;BME280;31519;45.408;10.962;2022-12-07T04:39:28;100469.81;;;6.93;99.86
45813;BME280;31519;45.408;10.962;2022-12-07T04:41:58;100466.94;;;6.61;100.00
45813;BME280;31519;45.408;10.962;2022-12-07T04:44:28;100471.69;;;6.30;100.00
45813;BME280;31519;45.408;10.962;2022-12-07T04:46:58;100468.53;;;5.89;100.00
45813;BME280;31519;45.408;10.962;2022-12-07T04:49:26;100467.66;;;6.04;100.00
45813;BME280;31519;45.408;10.962;2022-12-07T04:51:54;100472.97;;;5.99;100.00
45813;BME280;31519;45.408;10.962;2022-12-07T04:54:22;100467.03;;;6.17;100.00
45813;BME280;31519;45.408;10.962;2022-12-07T04:56:51;100469.50;;;6.71;100.00
45813;BME280;31519;45.408;10.962;2022-12-07T04:59:19;100478.09;;;6.58;100.00
45813;BME280;31519;45.408;10.962;2022-12-07T05:01:47;100475.09;;;6.64;100.00
45813;BME280;31519;45.408;10.962;2022-12-07T05:04:15;100468.41;;;6.77;100.00
45813;BME280;31519;45.408;10.962;2022-12-07T05:06:45;100475.88;;;6.36;99.77
45813;BME280;31519;45.408;10.962;2022-12-07T05:09:13;100478.72;;;6.06;100.00
45813;BME280;31519;45.408;10.962;2022-12-07T05:11:41;100484.16;;;5.75;100.00
45813;BME280;31519;45.408;10.962;2022-12-07T05:14:14;100478.69;;;6.11;100.00
45813;BME280;31519;45.408;10.962;2022-12-07T05:16:44;100471.84;;;5.46;100.00
45813;BME280;31519;45.408;10.962;2022-12-07T05:19:12;100469.31;;;5.25;100.00
45813;BME280;31519;45.408;10.962;2022-12-07T05:21:41;100467.31;;;5.56;100.00
45813;BME280;31519;45.408;10.962;2022-12-07T05:24:11;100460.41;;;5.70;100.00
45813;BME280;31519;45.408;10.962;2022-12-07T05:26:41;100455.81;;;5.86;100.00
45813;BME280;31519;45.408;10.962;2022-12-07T05:29:12;100457.03;;;6.09;100.00
45813;BME280;31519;45.408;10.962;2022-12-07T05:31:41;100463.00;;;5.80;100.00
45813;BME280;31519;45.408;10.962;2022-12-07T05:34:10;100459.13;;;6.12;100.00
45813;BME280;31519;45.408;10.962;2022-12-07T05:36:38;100463.22;;;5.89;100.00
45813;BME280;31519;45.408;10.962;2022-12-07T05:39:08;100458.94;;;5.44;100.00
45813;BME280;31519;45.408;10.962;2022-12-07T05:41:37;100457.03;;;5.55;100.00
45813;BME280;31519;45.408;10.962;2022-12-07T05:44:23;100456.53;;;5.53;100.00
45813;BME280;31519;45.408;10.962;2022-12-07T05:46:51;100457.31;;;5.53;100.00
45813;BME280;31519;45.408;10.962;2022-12-07T05:49:19;100459.59;;;5.70;100.00
45813;BME280;31519;45.408;10.962;2022-12-07T05:51:47;100465.50;;;6.06;100.00
45813;BME280;31519;45.408;10.962;2022-12-07T05:54:15;100473.44;;;6.06;100.00
45813;BME280;31519;45.408;10.962;2022-12-07T05:56:43;100465.75;;;6.09;100.00
45813;BME280;31519;45.408;10.962;2022-12-07T05:59:11;100470.72;;;6.16;100.00
45813;BME280;31519;45.408;10.962;2022-12-07T06:01:57;100472.81;;;6.19;98.95
45813;BME280;31519;45.408;10.962;2022-12-07T06:04:29;100473.50;;;5.96;99.88
45813;BME280;31519;45.408;10.962;2022-12-07T06:06:58;100468.06;;;5.72;100.00
45813;BME280;31519;45.408;10.962;2022-12-07T06:09:27;100466.72;;;5.74;100.00
45813;BME280;31519;45.408;10.962;2022-12-07T06:11:56;100471.78;;;5.66;100.00
45813;BME280;31519;45.408;10.962;2022-12-07T06:14:43;100475.28;;;6.05;98.52
45813;BME280;31519;45.408;10.962;2022-12-07T06:17:12;100477.53;;;5.73;98.83
45813;BME280;31519;45.408;10.962;2022-12-07T06:19:42;100475.19;;;5.71;99.29
45813;BME280;31519;45.408;10.962;2022-12-07T06:22:11;100469.63;;;5.73;98.69
45813;BME280;31519;45.408;10.962;2022-12-07T06:24:39;100460.78;;;5.44;98.77
45813;BME280;31519;45.408;10.962;2022-12-07T06:27:08;100472.72;;;5.26;98.79
45813;BME280;31519;45.408;10.962;2022-12-07T06:29:37;100475.94;;;5.18;99.11
45813;BME280;31519;45.408;10.962;2022-12-07T06:32:06;100474.88;;;5.09;100.00
45813;BME280;31519;45.408;10.962;2022-12-07T06:34:34;100490.22;;;5.02;100.00
45813;BME280;31519;45.408;10.962;2022-12-07T06:37:02;100488.59;;;5.21;100.00
45813;BME280;31519;45.408;10.962;2022-12-07T06:39:31;100489.59;;;5.35;100.00
45813;BME280;31519;45.408;10.962;2022-12-07T06:41:59;100490.88;;;5.48;100.00
45813;BME280;31519;45.408;10.962;2022-12-07T06:44:27;100490.22;;;5.76;99.86
45813;BME280;31519;45.408;10.962;2022-12-07T06:46:55;100498.41;;;5.79;98.97
45813;BME280;31519;45.408;10.962;2022-12-07T06:49:44;100493.28;;;5.44;99.53
45813;BME280;31519;45.408;10.962;2022-12-07T06:52:12;100496.41;;;5.46;99.91
45813;BME280;31519;45.408;10.962;2022-12-07T06:54:40;100498.97;;;5.71;98.87
45813;BME280;31519;45.408;10.962;2022-12-07T06:57:08;100498.00;;;5.47;98.88
45813;BME280;31519;45.408;10.962;2022-12-07T06:59:36;100499.03;;;5.56;98.18
45813;BME280;31519;45.408;10.962;2022-12-07T07:02:04;100494.31;;;5.53;97.93
45813;BME280;31519;45.408;10.962;2022-12-07T07:04:33;100492.59;;;5.77;96.78
45813;BME280;31519;45.408;10.962;2022-12-07T07:07:01;100495.09;;;5.54;96.47
45813;BME280;31519;45.408;10.962;2022-12-07T07:09:29;100494.53;;;5.62;95.14
45813;BME280;31519;45.408;10.962;2022-12-07T07:11:57;100498.59;;;5.29;95.79
45813;BME280;31519;45.408;10.962;2022-12-07T07:14:25;100511.97;;;5.63;95.10
45813;BME280;31519;45.408;10.962;2022-12-07T07:16:53;100508.81;;;5.56;94.91
45813;BME280;31519;45.408;10.962;2022-12-07T07:19:21;100506.16;;;5.56;93.92
45813;BME280;31519;45.408;10.962;2022-12-07T07:21:49;100506.28;;;5.25;94.74
45813;BME280;31519;45.408;10.962;2022-12-07T07:24:18;100515.22;;;5.34;94.29
45813;BME280;31519;45.408;10.962;2022-12-07T07:26:46;100505.88;;;5.62;93.96
45813;BME280;31519;45.408;10.962;2022-12-07T07:29:14;100509.97;;;5.99;91.11
45813;BME280;31519;45.408;10.962;2022-12-07T07:31:42;100508.28;;;6.18;89.52
45813;BME280;31519;45.408;10.962;2022-12-07T07:34:10;100519.78;;;5.83;90.77
45813;BME280;31519;45.408;10.962;2022-12-07T07:36:38;100515.16;;;6.53;89.08
45813;BME280;31519;45.408;10.962;2022-12-07T07:39:07;100510.84;;;8.10;80.50
45813;BME280;31519;45.408;10.962;2022-12-07T07:41:35;100519.47;;;8.71;74.46
45813;BME280;31519;45.408;10.962;2022-12-07T07:44:04;100521.03;;;8.91;73.30
45813;BME280;31519;45.408;10.962;2022-12-07T07:46:31;100514.59;;;9.38;70.85
45813;BME280;31519;45.408;10.962;2022-12-07T07:49:01;100516.38;;;9.56;69.49
45813;BME280;31519;45.408;10.962;2022-12-07T07:51:29;100515.28;;;9.57;70.06
45813;BME280;31519;45.408;10.962;2022-12-07T07:53:57;100526.66;;;9.17;70.74
45813;BME280;31519;45.408;10.962;2022-12-07T07:56:25;100520.97;;;7.65;75.77
45813;BME280;31519;45.408;10.962;2022-12-07T07:58:53;100527.06;;;6.89;80.67
45813;BME280;31519;45.408;10.962;2022-12-07T08:01:21;100527.06;;;6.89;82.47
45813;BME280;31519;45.408;10.962;2022-12-07T08:03:49;100526.44;;;6.68;85.95
45813;BME280;31519;45.408;10.962;2022-12-07T08:06:17;100531.22;;;6.66;86.23
45813;BME280;31519;45.408;10.962;2022-12-07T08:08:45;100532.28;;;6.65;86.20
45813;BME280;31519;45.408;10.962;2022-12-07T08:11:13;100534.72;;;6.91;85.79
45813;BME280;31519;45.408;10.962;2022-12-07T08:13:45;100544.72;;;6.99;84.65
45813;BME280;31519;45.408;10.962;2022-12-07T08:16:14;100528.03;;;7.27;83.71
45813;BME280;31519;45.408;10.962;2022-12-07T08:18:43;100533.66;;;7.68;82.90
45813;BME280;31519;45.408;10.962;2022-12-07T08:21:13;100531.41;;;8.18;80.78
45813;BME280;31519;45.408;10.962;2022-12-07T08:23:42;100538.22;;;7.86;81.52
45813;BME280;31519;45.408;10.962;2022-12-07T08:26:13;100528.09;;;8.07;79.99
45813;BME280;31519;45.408;10.962;2022-12-07T08:28:42;100528.25;;;7.78;80.65
45813;BME280;31519;45.408;10.962;2022-12-07T08:31:14;100531.63;;;8.02;81.17
45813;BME280;31519;45.408;10.962;2022-12-07T08:33:45;100539.16;;;8.14;80.97
45813;BME280;31519;45.408;10.962;2022-12-07T08:36:13;100546.06;;;7.73;82.28
45813;BME280;31519;45.408;10.962;2022-12-07T08:38:43;100546.81;;;7.78;82.16
45813;BME280;31519;45.408;10.962;2022-12-07T08:41:31;100546.34;;;7.71;82.18
45813;BME280;31519;45.408;10.962;2022-12-07T08:48:55;100550.09;;;8.31;79.90
45813;BME280;31519;45.408;10.962;2022-12-07T08:51:26;100555.47;;;8.45;79.29
45813;BME280;31519;45.408;10.962;2022-12-07T08:53:55;100550.69;;;8.47;78.68
45813;BME280;31519;45.408;10.962;2022-12-07T08:56:26;100548.09;;;8.93;79.14
45813;BME280;31519;45.408;10.962;2022-12-07T08:58:55;100553.31;;;8.66;79.34
45813;BME280;31519;45.408;10.962;2022-12-07T09:01:24;100547.72;;;9.13;77.87
45813;BME280;31519;45.408;10.962;2022-12-07T09:03:52;100541.25;;;9.19;78.97
45813;BME280;31519;45.408;10.962;2022-12-07T09:06:20;100543.84;;;8.92;80.75
45813;BME280;31519;45.408;10.962;2022-12-07T09:08:52;100534.84;;;9.07;80.61
45813;BME280;31519;45.408;10.962;2022-12-07T09:11:22;100534.38;;;8.54;78.76
45813;BME280;31519;45.408;10.962;2022-12-07T09:13:55;100541.22;;;8.41;80.95
45813;BME280;31519;45.408;10.962;2022-12-07T09:16:24;100543.78;;;8.65;80.81
45813;BME280;31519;45.408;10.962;2022-12-07T09:18:52;100541.03;;;8.70;80.41
45813;BME280;31519;45.408;10.962;2022-12-07T09:21:21;100548.50;;;9.00;80.80
45813;BME280;31519;45.408;10.962;2022-12-07T09:23:49;100543.66;;;9.48;77.42
45813;BME280;31519;45.408;10.962;2022-12-07T09:26:17;100542.25;;;9.37;78.25
45813;BME280;31519;45.408;10.962;2022-12-07T09:28:45;100547.75;;;9.82;75.96
45813;BME280;31519;45.408;10.962;2022-12-07T09:31:14;100545.91;;;9.68;77.47
45813;BME280;31519;45.408;10.962;2022-12-07T09:33:56;100546.19;;;9.94;77.51
45813;BME280;31519;45.408;10.962;2022-12-07T09:36:26;100543.88;;;10.73;72.39
45813;BME280;31519;45.408;10.962;2022-12-07T09:38:55;100545.38;;;10.07;74.88
45813;BME280;31519;45.408;10.962;2022-12-07T09:41:25;100537.03;;;9.87;76.49
45813;BME280;31519;45.408;10.962;2022-12-07T09:44:00;100543.94;;;10.82;74.27
45813;BME280;31519;45.408;10.962;2022-12-07T09:46:35;100541.75;;;11.06;72.99
45813;BME280;31519;45.408;10.962;2022-12-07T09:49:05;100535.66;;;10.61;74.18
45813;BME280;31519;45.408;10.962;2022-12-07T09:51:38;100527.28;;;10.98;72.79
45813;BME280;31519;45.408;10.962;2022-12-07T09:54:06;100527.78;;;10.78;73.63
45813;BME280;31519;45.408;10.962;2022-12-07T09:56:35;100527.16;;;11.43;71.19
45813;BME280;31519;45.408;10.962;2022-12-07T09:59:03;100525.84;;;11.71;69.79
45813;BME280;31519;45.408;10.962;2022-12-07T10:01:33;100521.66;;;11.79;68.90
45813;BME280;31519;45.408;10.962;2022-12-07T10:04:11;100512.41;;;12.62;68.15
45813;BME280;31519;45.408;10.962;2022-12-07T10:06:41;100515.94;;;13.09;65.95
45813;BME280;31519;45.408;10.962;2022-12-07T10:09:14;100514.28;;;12.70;65.29
45813;BME280;31519;45.408;10.962;2022-12-07T10:14:32;100504.75;;;12.09;68.21
45813;BME280;31519;45.408;10.962;2022-12-07T10:17:34;100515.22;;;12.74;66.80
45813;BME280;31519;45.408;10.962;2022-12-07T10:20:17;100506.94;;;13.22;65.46
45813;BME280;31519;45.408;10.962;2022-12-07T10:23:04;100502.53;;;14.06;61.39
45813;BME280;31519;45.408;10.962;2022-12-07T10:25:36;100510.16;;;13.45;64.14
45813;BME280;31519;45.408;10.962;2022-12-07T10:28:17;100507.38;;;12.78;65.14
45813;BME280;31519;45.408;10.962;2022-12-07T10:31:00;100506.31;;;12.27;67.24
45813;BME280;31519;45.408;10.962;2022-12-07T10:33:47;100495.31;;;12.20;69.65
45813;BME280;31519;45.408;10.962;2022-12-07T10:36:27;100498.28;;;12.10;69.46
45813;BME280;31519;45.408;10.962;2022-12-07T10:39:04;100494.22;;;12.04;68.93
45813;BME280;31519;45.408;10.962;2022-12-07T10:42:02;100494.38;;;11.99;69.08
45813;BME280;31519;45.408;10.962;2022-12-07T10:44:32;100489.34;;;12.32;67.81
45813;BME280;31519;45.408;10.962;2022-12-07T10:52:45;100490.19;;;11.50;70.65
45813;BME280;31519;45.408;10.962;2022-12-07T10:56:01;100483.34;;;12.52;68.77
45813;BME280;31519;45.408;10.962;2022-12-07T10:58:57;100479.47;;;12.32;69.19
45813;BME280;31519;45.408;10.962;2022-12-07T11:01:54;100488.53;;;11.88;70.33
45813;BME280;31519;45.408;10.962;2022-12-07T11:04:43;100487.34;;;11.07;72.41
45813;BME280;31519;45.408;10.962;2022-12-07T11:21:56;100469.94;;;11.49;70.88
45813;BME280;31519;45.408;10.962;2022-12-07T11:35:24;100454.63;;;12.15;70.30
45813;BME280;31519;45.408;10.962;2022-12-07T11:38:07;100452.94;;;12.19;70.29
45813;BME280;31519;45.408;10.962;2022-12-07T11:40:36;100448.69;;;12.18;68.42
45813;BME280;31519;45.408;10.962;2022-12-07T11:46:03;100447.81;;;13.07;64.68
45813;BME280;31519;45.408;10.962;2022-12-07T11:48:38;100445.94;;;13.07;64.58
45813;BME280;31519;45.408;10.962;2022-12-07T11:51:11;100446.75;;;12.99;64.30
45813;BME280;31519;45.408;10.962;2022-12-07T11:53:57;100439.63;;;13.50;64.05
45813;BME280;31519;45.408;10.962;2022-12-07T11:56:27;100435.78;;;12.83;64.28
45813;BME280;31519;45.408;10.962;2022-12-07T11:59:02;100435.97;;;13.96;60.29
45813;BME280;31519;45.408;10.962;2022-12-07T12:06:39;100429.59;;;14.21;61.17
45813;BME280;31519;45.408;10.962;2022-12-07T12:20:45;100411.00;;;14.25;60.91
45813;BME280;31519;45.408;10.962;2022-12-07T12:23:35;100400.16;;;15.27;58.35
45813;BME280;31519;45.408;10.962;2022-12-07T12:26:07;100405.91;;;15.77;57.00
45813;BME280;31519;45.408;10.962;2022-12-07T12:28:42;100406.91;;;14.39;60.41
45813;BME280;31519;45.408;10.962;2022-12-07T12:34:01;100394.75;;;16.03;55.37
45813;BME280;31519;45.408;10.962;2022-12-07T12:39:08;100390.03;;;16.71;54.87
45813;BME280;31519;45.408;10.962;2022-12-07T12:47:04;100395.91;;;16.18;54.89
45813;BME280;31519;45.408;10.962;2022-12-07T12:50:22;100388.88;;;15.33;56.89
45813;BME280;31519;45.408;10.962;2022-12-07T12:56:07;100392.91;;;16.63;53.93
45813;BME280;31519;45.408;10.962;2022-12-07T12:58:40;100383.53;;;16.72;55.06
45813;BME280;31519;45.408;10.962;2022-12-07T13:03:59;100392.88;;;15.64;57.04
45813;BME280;31519;45.408;10.962;2022-12-07T13:08:58;100377.16;;;16.49;54.59
45813;BME280;31519;45.408;10.962;2022-12-07T13:11:42;100378.56;;;16.15;57.16
45813;BME280;31519;45.408;10.962;2022-12-07T13:20:08;100368.91;;;16.26;55.82
45813;BME280;31519;45.408;10.962;2022-12-07T13:22:47;100369.94;;;16.37;54.50
45813;BME280;31519;45.408;10.962;2022-12-07T13:28:16;100365.91;;;16.16;54.96
45813;BME280;31519;45.408;10.962;2022-12-07T13:33:29;100362.81;;;16.29;55.67
45813;BME280;31519;45.408;10.962;2022-12-07T13:35:57;100365.34;;;16.38;55.88
45813;BME280;31519;45.408;10.962;2022-12-07T13:38:31;100366.66;;;17.07;53.68
45813;BME280;31519;45.408;10.962;2022-12-07T13:41:15;100363.97;;;16.91;54.30
45813;BME280;31519;45.408;10.962;2022-12-07T13:43:58;100364.22;;;17.17;53.59
45813;BME280;31519;45.408;10.962;2022-12-07T13:49:25;100357.22;;;20.23;45.98
45813;BME280;31519;45.408;10.962;2022-12-07T13:52:06;100352.66;;;21.33;42.75
45813;BME280;31519;45.408;10.962;2022-12-07T13:54:49;100350.50;;;21.63;41.88
45813;BME280;31519;45.408;10.962;2022-12-07T13:57:18;100355.31;;;20.67;43.09
45813;BME280;31519;45.408;10.962;2022-12-07T13:59:47;100347.78;;;20.43;43.55
45813;BME280;31519;45.408;10.962;2022-12-07T14:02:31;100351.47;;;22.66;39.61
45813;BME280;31519;45.408;10.962;2022-12-07T14:05:22;100346.09;;;21.34;41.19
45813;BME280;31519;45.408;10.962;2022-12-07T14:07:55;100353.94;;;21.60;40.83
45813;BME280;31519;45.408;10.962;2022-12-07T14:10:26;100354.41;;;21.80;40.78
45813;BME280;31519;45.408;10.962;2022-12-07T14:12:56;100355.72;;;20.69;41.70
45813;BME280;31519;45.408;10.962;2022-12-07T14:15:34;100357.69;;;19.62;44.70
45813;BME280;31519;45.408;10.962;2022-12-07T14:18:03;100352.97;;;19.52;45.01
45813;BME280;31519;45.408;10.962;2022-12-07T14:20:36;100352.22;;;19.55;44.55
45813;BME280;31519;45.408;10.962;2022-12-07T14:23:21;100354.59;;;19.93;44.27
45813;BME280;31519;45.408;10.962;2022-12-07T14:25:53;100358.09;;;21.33;41.92
45813;BME280;31519;45.408;10.962;2022-12-07T14:28:30;100350.84;;;20.93;41.80
45813;BME280;31519;45.408;10.962;2022-12-07T14:31:00;100351.75;;;21.11;41.21
45813;BME280;31519;45.408;10.962;2022-12-07T14:33:28;100360.41;;;19.06;45.04
45813;BME280;31519;45.408;10.962;2022-12-07T14:35:57;100357.66;;;18.11;46.75
45813;BME280;31519;45.408;10.962;2022-12-07T14:38:26;100359.63;;;19.05;44.98
45813;BME280;31519;45.408;10.962;2022-12-07T14:40:55;100352.81;;;18.20;48.26
45813;BME280;31519;45.408;10.962;2022-12-07T14:43:43;100360.81;;;18.81;47.10
45813;BME280;31519;45.408;10.962;2022-12-07T14:46:32;100356.28;;;17.24;50.67
45813;BME280;31519;45.408;10.962;2022-12-07T14:49:00;100357.16;;;16.19;53.85
45813;BME280;31519;45.408;10.962;2022-12-07T14:51:49;100358.41;;;15.66;56.17
45813;BME280;31519;45.408;10.962;2022-12-07T14:54:37;100366.34;;;15.50;56.77
45813;BME280;31519;45.408;10.962;2022-12-07T14:57:08;100361.00;;;15.62;56.68
45813;BME280;31519;45.408;10.962;2022-12-07T14:59:37;100363.63;;;15.10;59.02
45813;BME280;31519;45.408;10.962;2022-12-07T15:02:15;100364.63;;;13.79;62.98
45813;BME280;31519;45.408;10.962;2022-12-07T15:04:43;100369.53;;;14.10;61.66
45813;BME280;31519;45.408;10.962;2022-12-07T15:07:19;100369.19;;;13.58;64.69
45813;BME280;31519;45.408;10.962;2022-12-07T15:09:48;100366.88;;;13.48;65.77
45813;BME280;31519;45.408;10.962;2022-12-07T15:12:16;100365.63;;;12.95;68.16